Time;durP1;ratioP1;P1;durP2;ratioP2;P2;SDS_P1;SDS_P2;PMS_P1;PMS_P2;Temp;Humidity;BMP_temperature;BMP_pressure;BME280_temperature;BME280_humidity;BME280_pressure;Samples;Min_cycle;Max_cycle;Signal;HPM_P1;HPM_P2
2022/04/22 00:00:30;;;;;;;;;6.67;5.67;;;;;16.99;39.48;99940.72;5058912;28;45484;-79
2022/04/22 00:02:56;;;;;;;;;7.00;5.67;;;;;17.03;39.54;99955.53;5042969;28;45758;-77
2022/04/22 00:05:22;;;;;;;;;8.33;6.00;;;;;16.83;39.49;99940.41;5061981;28;45169;-78
2022/04/22 00:07:48;;;;;;;;;5.00;4.67;;;;;16.71;39.90;99922.31;5057046;28;46549;-79
2022/04/22 00:10:16;;;;;;;;;7.00;5.00;;;;;16.60;39.50;99911.28;5062777;28;45568;-73
2022/04/22 00:12:41;;;;;;;;;6.00;6.00;;;;;16.79;41.53;99936.16;5040109;28;45469;-77
2022/04/22 00:15:08;;;;;;;;;9.33;8.33;;;;;16.88;41.64;99946.41;5057414;28;45403;-72
2022/04/22 00:17:34;;;;;;;;;7.00;7.00;;;;;16.89;40.99;99947.25;5056800;28;46501;-71
2022/04/22 00:20:00;;;;;;;;;6.00;6.00;;;;;16.94;41.07;99959.41;5064168;28;45959;-73
2022/04/22 00:22:25;;;;;;;;;6.00;5.00;;;;;17.01;41.75;99953.88;5058501;28;45461;-76
2022/04/22 00:24:51;;;;;;;;;7.67;6.00;;;;;16.89;45.37;99926.09;5057505;28;45574;-73
2022/04/22 00:27:17;;;;;;;;;8.67;7.00;;;;;17.14;42.41;99944.56;5057938;28;45401;-73
2022/04/22 00:29:42;;;;;;;;;10.00;7.00;;;;;17.23;41.71;99935.44;5059763;28;45456;-73
2022/04/22 00:32:12;;;;;;;;;6.33;5.67;;;;;17.15;40.45;99935.69;5059800;28;45342;-72
2022/04/22 00:34:38;;;;;;;;;5.00;5.00;;;;;16.16;40.27;99781.59;5057918;28;45496;-73
2022/04/22 00:37:04;;;;;;;;;5.00;5.00;;;;;17.02;40.24;99947.69;5053061;28;46255;-72
2022/04/22 00:39:30;;;;;;;;;7.00;5.00;;;;;16.83;40.21;99921.91;5058367;28;45375;-73
2022/04/22 00:41:56;;;;;;;;;8.67;8.33;;;;;16.72;40.07;99916.97;5064627;28;45449;-74
2022/04/22 00:44:21;;;;;;;;;6.00;6.00;;;;;16.51;40.12;99899.22;5057317;28;45527;-75
2022/04/22 00:46:47;;;;;;;;;8.33;6.33;;;;;16.44;40.15;99881.88;5056845;28;45497;-73
2022/04/22 00:49:12;;;;;;;;;8.00;6.00;;;;;16.37;40.45;99880.38;5057258;28;45426;-73
2022/04/22 00:51:38;;;;;;;;;7.33;7.00;;;;;16.39;40.46;99900.53;5057228;28;45540;-74
2022/04/22 00:54:05;;;;;;;;;5.67;5.00;;;;;16.58;40.73;99939.53;5057831;28;45533;-71
2022/04/22 00:56:31;;;;;;;;;7.67;5.00;;;;;16.60;40.57;99935.91;5062919;27;46474;-74
2022/04/22 00:58:59;;;;;;;;;7.00;7.00;;;;;16.59;41.02;99943.94;5063384;28;45450;-73
2022/04/22 01:01:43;;;;;;;;;7.67;7.00;;;;;16.54;40.79;99936.16;5576106;22;47025;-72
2022/04/22 01:09:51;;;;;;;;;7.00;6.00;;;;;16.22;41.89;99900.25;5064731;28;45451;-73
2022/04/22 01:12:18;;;;;;;;;5.00;5.00;;;;;16.45;40.94;99931.19;5068376;28;45506;-75
2022/04/22 01:14:45;;;;;;;;;7.25;6.25;;;;;15.86;41.05;99838.09;5067503;28;45313;-76
2022/04/22 01:17:11;;;;;;;;;6.67;5.33;;;;;16.14;40.96;99886.47;5072059;27;46911;-72
2022/04/22 01:19:37;;;;;;;;;7.67;4.67;;;;;16.39;41.11;99929.59;5073118;27;45494;-72
2022/04/22 01:22:03;;;;;;;;;8.00;6.00;;;;;15.93;41.03;99856.38;5073303;28;45507;-72
2022/04/22 01:24:29;;;;;;;;;7.00;6.00;;;;;16.19;40.89;99892.47;5070224;28;45655;-72
2022/04/22 01:26:56;;;;;;;;;5.33;5.00;;;;;15.89;40.79;99848.53;5070691;28;45506;-72
2022/04/22 01:29:22;;;;;;;;;10.00;8.00;;;;;16.39;41.10;99924.31;5072849;28;46298;-73
2022/04/22 01:31:48;;;;;;;;;7.00;5.00;;;;;16.18;41.26;99882.78;5088938;27;46079;-74
2022/04/22 01:34:14;;;;;;;;;7.33;5.00;;;;;16.44;41.21;99925.00;5066751;28;45476;-71
2022/04/22 01:36:40;;;;;;;;;4.67;4.67;;;;;16.48;41.10;99913.44;5073964;28;45523;-72
2022/04/22 01:39:09;;;;;;;;;8.67;5.67;;;;;16.49;41.03;99907.25;5072065;28;45538;-71
2022/04/22 01:41:35;;;;;;;;;4.67;4.00;;;;;16.39;40.98;99876.75;5074286;28;45438;-73
2022/04/22 01:44:01;;;;;;;;;5.00;5.00;;;;;16.55;41.04;99900.84;5056017;28;45470;-74
2022/04/22 01:46:26;;;;;;;;;7.00;7.00;;;;;16.05;40.97;99826.88;5056071;28;46140;-74
2022/04/22 01:48:52;;;;;;;;;5.67;5.67;;;;;16.54;41.05;99900.00;5064131;28;45509;-74
2022/04/22 01:51:18;;;;;;;;;7.67;5.00;;;;;16.46;40.92;99869.47;5071214;28;45456;-73
2022/04/22 01:53:43;;;;;;;;;11.00;7.00;;;;;16.53;40.94;99887.69;5068567;28;46564;-74
2022/04/22 01:56:09;;;;;;;;;6.33;5.67;;;;;16.55;40.53;99890.28;5071954;28;46644;-75
2022/04/22 01:58:34;;;;;;;;;9.00;6.00;;;;;16.47;40.80;99880.00;5059572;28;45954;-73
2022/04/22 02:01:00;;;;;;;;;9.00;7.00;;;;;16.57;40.78;99898.16;5065192;28;45516;-73
2022/04/22 02:03:26;;;;;;;;;5.33;5.00;;;;;16.45;40.83;99888.91;5069643;28;45435;-74
2022/04/22 02:05:52;;;;;;;;;7.00;6.00;;;;;16.32;41.13;99872.59;5072726;28;45514;-72
2022/04/22 02:08:20;;;;;;;;;5.33;5.33;;;;;16.32;41.23;99875.25;5073662;28;45321;-71
2022/04/22 02:10:46;;;;;;;;;6.67;6.00;;;;;16.48;41.15;99888.78;5073117;28;45269;-73
2022/04/22 02:13:12;;;;;;;;;6.67;6.67;;;;;16.47;41.30;99885.28;5075494;28;45529;-72
2022/04/22 02:15:37;;;;;;;;;6.00;5.00;;;;;16.30;41.18;99856.81;5074782;28;45386;-72
2022/04/22 02:18:03;;;;;;;;;7.00;5.00;;;;;16.46;40.98;99885.31;5065477;28;45578;-73
2022/04/22 02:20:28;;;;;;;;;8.33;6.00;;;;;16.34;41.21;99862.84;5070521;27;45494;-71
2022/04/22 02:22:54;;;;;;;;;8.33;6.00;;;;;16.21;40.86;99830.72;5066024;28;46344;-73
2022/04/22 02:25:20;;;;;;;;;6.00;6.00;;;;;16.44;41.02;99866.00;5068373;28;45808;-72
2022/04/22 02:30:30;;;;;;;;;7.33;7.00;;;;;16.52;40.92;99890.41;5072035;28;46257;-72
2022/04/22 02:32:56;;;;;;;;;7.33;7.33;;;;;16.32;41.02;99865.56;5073120;27;45514;-74
2022/04/22 02:35:22;;;;;;;;;6.00;5.33;;;;;16.40;41.55;99869.72;5066444;28;46383;-73
2022/04/22 02:37:48;;;;;;;;;8.33;7.00;;;;;16.44;41.16;99872.16;5067307;28;45729;-73
2022/04/22 02:45:43;;;;;;;;;5.00;5.00;;;;;16.46;41.31;99872.97;5071069;28;45723;-72
2022/04/22 02:48:08;;;;;;;;;9.00;6.00;;;;;16.41;41.33;99859.06;5058607;28;45310;-71
2022/04/22 02:50:34;;;;;;;;;7.33;5.00;;;;;16.24;41.33;99827.97;5055976;28;45428;-73
2022/04/22 02:52:59;;;;;;;;;6.67;6.00;;;;;16.15;41.34;99827.44;5071838;28;45457;-72
2022/04/22 02:55:25;;;;;;;;;7.00;7.00;;;;;16.26;41.41;99841.13;5074202;28;45652;-72
2022/04/22 02:57:51;;;;;;;;;7.33;6.00;;;;;16.31;41.33;99870.88;5064670;28;45467;-72
2022/04/22 03:00:17;;;;;;;;;6.33;6.33;;;;;16.36;41.47;99860.16;5068318;28;45467;-73
2022/04/22 03:02:42;;;;;;;;;9.33;8.33;;;;;15.95;41.57;99815.78;5070706;28;45539;-73
2022/04/22 03:05:12;;;;;;;;;6.00;6.00;;;;;16.22;42.17;99872.06;5065415;28;45380;-71
2022/04/22 03:07:38;;;;;;;;;7.33;7.00;;;;;16.16;41.59;99867.00;5073220;28;45542;-74
2022/04/22 03:10:05;;;;;;;;;8.00;6.00;;;;;15.80;42.06;99803.97;5076660;28;45514;-72
2022/04/22 03:12:31;;;;;;;;;6.00;6.00;;;;;15.96;41.87;99830.69;5079273;28;45643;-74
2022/04/22 03:14:57;;;;;;;;;7.33;7.33;;;;;16.01;41.70;99836.69;5077353;28;45970;-72
2022/04/22 03:17:26;;;;;;;;;9.67;7.33;;;;;15.93;42.04;99836.09;5077748;28;46244;-74
2022/04/22 03:19:52;;;;;;;;;5.00;5.00;;;;;16.01;41.84;99856.97;5075263;28;45660;-72
2022/04/22 03:22:18;;;;;;;;;7.33;6.33;;;;;15.89;41.76;99837.97;5071596;28;45492;-74
2022/04/22 03:24:43;;;;;;;;;8.75;6.00;;;;;15.53;42.16;99779.34;5072122;28;46255;-74
2022/04/22 03:27:10;;;;;;;;;6.25;6.00;;;;;15.83;42.28;99824.13;5075125;28;45309;-74
2022/04/22 03:29:36;;;;;;;;;6.33;5.00;;;;;16.04;41.91;99852.44;5072440;28;45407;-72
2022/04/22 03:32:02;;;;;;;;;6.25;5.50;;;;;16.04;42.20;99857.72;5076924;28;45322;-73
2022/04/22 03:34:28;;;;;;;;;6.00;6.00;;;;;15.94;42.03;99848.38;5073923;28;46600;-75
2022/04/22 03:36:54;;;;;;;;;5.00;5.00;;;;;15.71;42.39;99803.41;5078580;28;45554;-73
2022/04/22 03:39:20;;;;;;;;;7.00;5.00;;;;;15.98;42.04;99842.09;5073137;28;45385;-77
2022/04/22 03:41:46;;;;;;;;;8.33;7.00;;;;;15.86;41.74;99824.03;5082750;28;45489;-75
2022/04/22 03:44:11;;;;;;;;;5.00;5.00;;;;;16.09;42.23;99847.88;5073105;28;46181;-74
2022/04/22 03:46:37;;;;;;;;;6.25;6.25;;;;;15.77;42.30;99812.00;5074942;28;45419;-74
2022/04/22 03:49:04;;;;;;;;;9.33;6.33;;;;;16.03;42.15;99852.50;5070195;28;45305;-74
2022/04/22 03:51:31;;;;;;;;;8.50;8.50;;;;;15.81;41.84;99829.47;5071047;28;45496;-72
2022/04/22 03:53:57;;;;;;;;;8.50;7.00;;;;;15.92;41.90;99857.25;5080038;28;45481;-73
2022/04/22 03:59:07;;;;;;;;;6.50;6.50;;;;;15.89;42.22;99845.03;5063071;28;45247;-72
2022/04/22 04:01:33;;;;;;;;;6.75;6.00;;;;;15.93;42.36;99853.72;5069371;28;45388;-73
2022/04/22 04:03:59;;;;;;;;;6.00;5.67;;;;;15.96;42.18;99853.63;5078669;28;45929;-72
2022/04/22 04:06:26;;;;;;;;;9.67;6.00;;;;;15.96;41.81;99850.97;5075913;28;45600;-72
2022/04/22 04:17:14;;;;;;;;;8.33;8.00;;;;;15.52;42.61;99800.50;5072219;28;45276;-72
2022/04/22 04:25:10;;;;;;;;;9.25;7.75;;;;;15.58;42.58;99838.09;5048252;28;45391;-76
2022/04/22 04:27:36;;;;;;;;;7.33;7.33;;;;;15.55;43.08;99835.56;5079431;28;45314;-76
2022/04/22 04:30:03;;;;;;;;;9.75;7.00;;;;;15.45;42.83;99829.75;5079402;28;45421;-77
2022/04/22 04:32:29;;;;;;;;;11.75;7.75;;;;;15.24;43.32;99798.78;5070787;27;45321;-73
2022/04/22 04:34:54;;;;;;;;;9.00;7.25;;;;;15.39;43.79;99839.63;5060175;28;46327;-74
2022/04/22 04:37:21;;;;;;;;;7.00;7.00;;;;;15.08;43.54;99794.91;5073958;28;45419;-71
2022/04/22 04:39:47;;;;;;;;;10.50;8.00;;;;;15.19;44.00;99827.94;5072651;28;45204;-71
2022/04/22 04:42:12;;;;;;;;;11.50;9.25;;;;;15.11;44.06;99827.28;5075810;28;45348;-71
2022/04/22 04:44:38;;;;;;;;;8.75;8.75;;;;;14.97;44.07;99803.13;5066428;28;45691;-70
2022/04/22 04:47:04;;;;;;;;;10.25;8.75;;;;;14.97;43.89;99800.47;5066841;28;45450;-73
2022/04/22 04:49:30;;;;;;;;;8.50;8.25;;;;;14.86;44.21;99782.38;5068317;28;45475;-73
2022/04/22 04:51:57;;;;;;;;;9.50;8.50;;;;;14.99;44.19;99809.22;5073900;28;45687;-72
2022/04/22 04:54:23;;;;;;;;;10.50;10.00;;;;;15.01;44.34;99821.44;5068807;27;45522;-72
2022/04/22 04:56:50;;;;;;;;;9.50;9.25;;;;;15.04;44.23;99842.47;5079429;27;45479;-72
2022/04/22 04:59:16;;;;;;;;;8.75;8.75;;;;;14.72;44.72;99790.69;5069555;28;45416;-73
2022/04/22 05:01:42;;;;;;;;;13.25;10.25;;;;;14.79;44.53;99805.44;5076924;28;45446;-73
2022/04/22 05:04:08;;;;;;;;;12.00;9.25;;;;;14.74;45.06;99806.47;5062950;28;45434;-73
2022/04/22 05:06:35;;;;;;;;;9.75;9.25;;;;;14.81;45.44;99824.69;5074224;28;45356;-73
2022/04/22 05:09:04;;;;;;;;;12.50;10.25;;;;;14.75;45.32;99819.59;5067226;28;45364;-71
2022/04/22 05:11:29;;;;;;;;;9.75;9.00;;;;;14.72;45.29;99810.94;5074368;28;45523;-72
2022/04/22 05:13:58;;;;;;;;;9.25;9.25;;;;;14.76;45.27;99825.72;5076409;28;45898;-72
2022/04/22 05:16:24;;;;;;;;;10.75;9.25;;;;;14.31;45.19;99753.25;5069678;28;45674;-72
2022/04/22 05:18:50;;;;;;;;;9.25;9.25;;;;;14.69;45.67;99811.00;5075179;27;45440;-72
2022/04/22 05:21:16;;;;;;;;;10.75;8.00;;;;;14.42;45.94;99760.81;5074185;28;45518;-72
2022/04/22 05:23:41;;;;;;;;;14.00;10.00;;;;;14.70;45.85;99810.97;5076179;27;45689;-71
2022/04/22 05:26:07;;;;;;;;;16.25;13.25;;;;;14.62;45.67;99808.56;5062222;28;45507;-71
2022/04/22 05:28:34;;;;;;;;;9.75;9.00;;;;;14.51;46.15;99778.13;5072271;28;45413;-75
2022/04/22 05:33:51;;;;;;;;;8.50;8.25;;;;;14.75;45.95;99819.59;5059538;28;45479;-73
2022/04/22 05:36:18;;;;;;;;;11.00;8.00;;;;;14.83;46.08;99828.16;5073448;27;45396;-75
2022/04/22 05:38:44;;;;;;;;;11.75;8.25;;;;;14.67;45.90;99782.06;5070523;28;46173;-71
2022/04/22 05:41:14;;;;;;;;;13.25;9.50;;;;;14.79;46.12;99812.47;5059502;28;45298;-74
2022/04/22 05:43:40;;;;;;;;;8.25;8.00;;;;;14.90;45.79;99818.28;5077006;28;45532;-78
2022/04/22 05:46:05;;;;;;;;;13.25;11.75;;;;;14.05;45.40;99680.25;5072744;27;45604;-72
2022/04/22 05:48:31;;;;;;;;;11.25;11.25;;;;;14.91;46.34;99819.16;5063115;28;45433;-75
2022/04/22 05:50:57;;;;;;;;;10.75;10.50;;;;;15.00;45.64;99832.91;5069163;28;45325;-73
2022/04/22 05:53:22;;;;;;;;;8.25;8.25;;;;;15.11;45.92;99831.72;5065441;28;45677;-72
2022/04/22 05:55:48;;;;;;;;;14.00;11.25;;;;;14.81;45.10;99784.31;5076019;28;45523;-73
2022/04/22 05:58:13;;;;;;;;;8.50;7.50;;;;;15.07;45.94;99838.88;5074138;28;45250;-72
2022/04/22 06:00:39;;;;;;;;;15.00;13.25;;;;;15.01;46.33;99832.00;5081378;27;45246;-72
2022/04/22 06:03:05;;;;;;;;;14.75;11.75;;;;;14.92;45.89;99823.50;5069012;28;45843;-72
2022/04/22 06:05:32;;;;;;;;;16.50;13.50;;;;;14.96;46.47;99839.19;5066986;28;45425;-75
2022/04/22 06:11:03;;;;;;;;;18.50;13.25;;;;;14.94;46.32;99838.38;5050277;28;45544;-77
2022/04/22 06:13:29;;;;;;;;;13.50;11.00;;;;;14.96;46.38;99840.97;5069879;28;45496;-74
2022/04/22 06:15:54;;;;;;;;;8.00;8.00;;;;;15.06;45.99;99843.25;5069392;28;45463;-74
2022/04/22 06:18:20;;;;;;;;;14.25;12.50;;;;;15.10;46.16;99832.63;5070840;28;45447;-73
2022/04/22 06:20:45;;;;;;;;;13.00;11.75;;;;;14.92;46.46;99799.78;5074016;28;45637;-75
2022/04/22 06:23:11;;;;;;;;;12.50;10.75;;;;;15.10;46.10;99824.72;5073313;28;45671;-73
2022/04/22 06:25:36;;;;;;;;;5.50;4.25;;;;;15.30;45.78;99837.28;5059386;28;45876;-75
2022/04/22 06:28:02;;;;;;;;;13.00;13.00;;;;;15.18;46.15;99812.16;5062769;28;45420;-74
2022/04/22 06:30:28;;;;;;;;;14.25;12.00;;;;;15.31;45.78;99829.31;5066924;28;45937;-73
2022/04/22 06:32:55;;;;;;;;;12.50;10.25;;;;;15.32;45.93;99806.44;5066981;28;45517;-72
2022/04/22 06:35:21;;;;;;;;;15.50;12.00;;;;;15.43;45.37;99817.50;5072598;28;45347;-73
2022/04/22 06:37:49;;;;;;;;;16.00;15.25;;;;;14.97;45.70;99737.22;5063572;28;45313;-73
2022/04/22 06:45:47;;;;;;;;;16.50;14.00;;;;;15.55;45.08;99806.53;5074566;28;45515;-73
2022/04/22 06:48:18;;;;;;;;;12.50;10.75;;;;;15.59;45.23;99800.25;5062217;28;45436;-72
2022/04/22 06:50:45;;;;;;;;;17.25;12.75;;;;;15.69;44.64;99793.75;5064385;28;45235;-71
2022/04/22 06:53:18;;;;;;;;;14.00;12.00;;;;;15.90;45.30;99825.66;5068781;28;46254;-73
2022/04/22 06:55:47;;;;;;;;;18.50;17.00;;;;;15.95;45.04;99826.34;5055703;28;45509;-75
2022/04/22 06:58:18;;;;;;;;;13.25;13.25;;;;;15.64;44.68;99787.75;5067348;28;45491;-73
2022/04/22 07:00:45;;;;;;;;;12.25;12.00;;;;;15.89;44.59;99822.13;5071259;27;45476;-75
2022/04/22 07:03:12;;;;;;;;;12.75;12.50;;;;;15.90;44.81;99825.66;5070055;27;45479;-75
2022/04/22 07:05:41;;;;;;;;;11.50;11.50;;;;;15.87;45.21;99825.72;5064637;28;45472;-72
2022/04/22 07:08:08;;;;;;;;;13.50;11.75;;;;;15.82;45.07;99804.75;5059302;28;45554;-75
2022/04/22 07:10:39;;;;;;;;;11.75;11.00;;;;;15.99;44.39;99812.13;5059010;28;45537;-74
2022/04/22 07:13:05;;;;;;;;;15.75;12.25;;;;;16.06;44.49;99805.72;5066246;28;45382;-73
2022/04/22 07:15:31;;;;;;;;;18.25;14.25;;;;;15.89;44.16;99779.03;5064074;28;45591;-75
2022/04/22 07:17:57;;;;;;;;;14.50;14.25;;;;;16.08;44.31;99814.41;5070221;28;45400;-73
2022/04/22 07:20:23;;;;;;;;;16.25;12.25;;;;;16.03;44.34;99819.00;5063847;27;45314;-73
2022/04/22 07:22:49;;;;;;;;;13.50;12.50;;;;;15.97;44.69;99798.13;5062819;28;46421;-74
2022/04/22 07:25:16;;;;;;;;;12.75;12.75;;;;;15.51;44.30;99714.34;5071097;28;45608;-72
2022/04/22 07:27:44;;;;;;;;;13.25;12.25;;;;;15.94;44.45;99790.28;5062648;28;45261;-73
2022/04/22 07:30:15;;;;;;;;;12.75;12.00;;;;;15.89;44.19;99785.16;5062262;28;45179;-73
2022/04/22 07:32:45;;;;;;;;;15.50;15.25;;;;;15.76;44.34;99780.38;5064783;28;45554;-73
2022/04/22 07:35:12;;;;;;;;;17.75;14.25;;;;;15.94;44.75;99823.75;5073724;28;45341;-72
2022/04/22 07:37:43;;;;;;;;;19.75;18.50;;;;;15.60;44.71;99777.34;5068935;28;45314;-75
2022/04/22 07:40:09;;;;;;;;;15.00;14.75;;;;;15.38;45.07;99756.97;5068484;28;45479;-76
2022/04/22 07:42:36;;;;;;;;;19.50;15.75;;;;;15.78;45.36;99824.28;5072410;28;46552;-73
2022/04/22 07:47:48;;;;;;;;;23.00;18.50;;;;;15.72;45.30;99799.88;5073051;28;45526;-72
2022/04/22 07:50:15;;;;;;;;;17.00;14.00;;;;;15.40;45.30;99746.34;5070879;28;45540;-76
2022/04/22 07:52:45;;;;;;;;;16.00;15.25;;;;;15.85;44.78;99819.63;5062791;28;45649;-73
2022/04/22 07:55:13;;;;;;;;;17.75;14.75;;;;;15.75;45.20;99812.97;5070104;28;45337;-75
2022/04/22 07:57:40;;;;;;;;;14.50;13.00;;;;;15.19;44.91;99690.78;5079837;28;45437;-75
2022/04/22 08:00:09;;;;;;;;;13.00;12.75;;;;;15.76;44.61;99777.75;5068019;28;45384;-78
2022/04/22 08:02:34;;;;;;;;;15.75;15.25;;;;;16.04;44.24;99802.25;5083353;27;47962;-74
2022/04/22 08:05:01;;;;;;;;;19.50;17.00;;;;;15.87;44.58;99773.81;5073814;28;45437;-76
2022/04/22 08:07:27;;;;;;;;;13.00;12.50;;;;;16.07;45.34;99810.06;5065501;28;45559;-71
2022/04/22 08:09:52;;;;;;;;;14.75;14.75;;;;;16.11;44.58;99797.59;5066198;28;45531;-74
2022/04/22 08:12:19;;;;;;;;;17.75;17.50;;;;;16.14;44.64;99796.66;5086708;27;47684;-74
2022/04/22 08:14:45;;;;;;;;;20.25;15.50;;;;;15.98;44.52;99783.97;5066610;28;45889;-76
2022/04/22 08:17:10;;;;;;;;;16.50;12.75;;;;;16.19;44.09;99808.78;5068025;28;45909;-77
2022/04/22 08:19:36;;;;;;;;;14.50;13.50;;;;;15.91;43.77;99756.06;5074967;28;45639;-75
2022/04/22 08:22:02;;;;;;;;;13.75;13.75;;;;;16.31;44.18;99813.59;5068945;28;46367;-75
2022/04/22 08:24:29;;;;;;;;;16.50;14.00;;;;;16.36;43.84;99794.94;5066841;28;45542;-76
2022/04/22 08:26:56;;;;;;;;;13.75;13.25;;;;;15.99;43.62;99724.97;5066406;28;45650;-75
2022/04/22 08:29:22;;;;;;;;;17.25;15.50;;;;;16.10;43.47;99721.94;5065145;28;45546;-74
2022/04/22 08:31:48;;;;;;;;;11.75;11.50;;;;;16.30;43.17;99737.03;5073425;28;46256;-73
2022/04/22 08:34:13;;;;;;;;;13.00;10.25;;;;;16.60;43.08;99768.50;5066931;28;45433;-73
2022/04/22 08:36:39;;;;;;;;;17.00;10.33;;;;;16.66;44.06;99749.78;5066952;28;45455;-73
2022/04/22 08:39:05;;;;;;;;;11.25;7.50;;;;;16.99;43.11;99773.19;5071890;28;45673;-72
2022/04/22 08:41:35;;;;;;;;;15.25;12.75;;;;;16.90;42.10;99751.50;5065705;28;46354;-73
2022/04/22 08:44:01;;;;;;;;;13.00;12.00;;;;;17.03;41.74;99780.94;5075876;28;45512;-74
2022/04/22 08:52:00;;;;;;;;;12.50;10.00;;;;;16.81;41.88;99741.28;5076473;28;45833;-73
2022/04/22 08:54:27;;;;;;;;;14.25;12.00;;;;;17.07;41.29;99755.25;5067810;28;45822;-73
2022/04/22 08:56:54;;;;;;;;;12.00;12.00;;;;;17.04;41.30;99747.44;5066998;28;46327;-73
2022/04/22 08:59:19;;;;;;;;;13.25;12.50;;;;;16.67;41.09;99680.97;5071118;28;45504;-73
2022/04/22 09:01:45;;;;;;;;;13.00;12.25;;;;;17.25;40.75;99767.75;5072316;28;45510;-75
2022/04/22 09:04:11;;;;;;;;;12.00;9.33;;;;;17.31;40.87;99775.41;5068254;28;45550;-75
2022/04/22 09:06:37;;;;;;;;;13.25;12.75;;;;;17.42;40.57;99771.47;5066727;28;45566;-73
2022/04/22 09:09:07;;;;;;;;;14.25;14.25;;;;;17.22;40.34;99746.66;5065238;28;45671;-75
2022/04/22 09:11:38;;;;;;;;;12.00;11.00;;;;;17.23;41.00;99745.75;5065793;28;45455;-73
2022/04/22 09:14:04;;;;;;;;;13.25;11.00;;;;;17.26;40.26;99726.25;5066171;28;45340;-73
2022/04/22 09:16:29;;;;;;;;;12.25;11.50;;;;;17.48;40.27;99752.66;5064126;28;45997;-72
2022/04/22 09:19:02;;;;;;;;;10.33;10.33;;;;;17.56;40.29;99771.75;5066354;28;45796;-72
2022/04/22 09:21:29;;;;;;;;;13.67;12.67;;;;;17.58;40.37;99768.13;5073511;28;45400;-72
2022/04/22 09:23:55;;;;;;;;;10.33;9.33;;;;;17.66;40.61;99769.56;5071971;28;45831;-71
2022/04/22 09:26:26;;;;;;;;;11.33;10.00;;;;;17.75;40.34;99753.31;5062953;28;45528;-72
2022/04/22 09:28:59;;;;;;;;;15.00;10.33;;;;;17.89;39.49;99758.88;5061719;28;45442;-73
2022/04/22 09:31:27;;;;;;;;;10.33;10.33;;;;;17.78;39.13;99726.66;5071562;28;45396;-71
2022/04/22 09:33:54;;;;;;;;;10.00;10.00;;;;;17.74;39.10;99717.97;5076531;28;45563;-74
2022/04/22 09:44:56;;;;;;;;;12.33;11.67;;;;;17.82;38.94;99730.94;5079733;28;45456;-73
2022/04/22 09:47:26;;;;;;;;;11.33;11.33;;;;;17.95;38.93;99761.25;5079467;28;45515;-75
2022/04/22 09:49:52;;;;;;;;;12.67;12.67;;;;;17.77;38.41;99709.94;5085642;27;45341;-73
2022/04/22 09:52:25;;;;;;;;;12.67;11.33;;;;;17.98;38.68;99744.34;5080827;28;45203;-75
2022/04/22 09:57:21;;;;;;;;;8.67;8.33;;;;;18.18;38.98;99735.53;5126629;27;45408;-74
2022/04/22 09:59:46;;;;;;;;;8.33;8.00;;;;;18.41;38.35;99745.94;5076819;27;46146;-75
2022/04/22 10:02:21;;;;;;;;;8.33;8.00;;;;;18.48;37.37;99749.16;5074705;27;46274;-72
2022/04/22 10:04:50;;;;;;;;;12.00;11.00;;;;;18.53;36.38;99735.69;5071718;27;45437;-72
2022/04/22 10:07:17;;;;;;;;;11.33;8.67;;;;;18.51;36.51;99726.94;5079211;27;45559;-71
2022/04/22 10:09:45;;;;;;;;;11.00;11.00;;;;;18.55;36.58;99734.69;5071099;27;45839;-71
2022/04/22 10:12:15;;;;;;;;;7.33;7.33;;;;;18.53;36.20;99722.41;5070979;27;45436;-71
2022/04/22 10:14:43;;;;;;;;;8.00;7.33;;;;;18.60;36.66;99724.75;5072054;27;45467;-71
2022/04/22 10:17:13;;;;;;;;;7.33;7.33;;;;;18.50;36.37;99696.06;5074013;27;45338;-72
2022/04/22 10:19:41;;;;;;;;;7.00;7.00;;;;;18.52;37.38;99675.63;5086981;27;46934;-73
2022/04/22 10:22:10;;;;;;;;;11.00;10.00;;;;;19.00;35.17;99730.78;5071657;27;45526;-73
2022/04/22 10:24:37;;;;;;;;;8.33;7.33;;;;;19.02;35.02;99731.56;5073215;28;45333;-71
2022/04/22 10:27:07;;;;;;;;;7.00;6.00;;;;;18.62;35.01;99648.59;5071195;27;45320;-72
2022/04/22 10:29:34;;;;;;;;;8.00;6.67;;;;;19.26;36.20;99731.31;5071411;27;45975;-73
2022/04/22 10:32:02;;;;;;;;;7.33;7.33;;;;;19.38;34.94;99716.56;5079303;27;45643;-73
2022/04/22 10:34:58;;;;;;;;;8.00;7.67;;;;;19.44;34.49;99719.75;5071301;28;45635;-71
2022/04/22 10:37:28;;;;;;;;;9.00;8.67;;;;;19.36;34.50;99715.78;5065661;27;46201;-72
2022/04/22 10:39:56;;;;;;;;;6.33;5.67;;;;;19.40;34.59;99722.66;5070403;28;45745;-73
2022/04/22 10:42:37;;;;;;;;;8.67;7.67;;;;;19.30;34.31;99718.75;5072961;27;45373;-75
2022/04/22 10:47:55;;;;;;;;;8.33;8.33;;;;;19.43;34.31;99706.56;5074011;27;45367;-72
2022/04/22 10:50:38;;;;;;;;;8.67;8.00;;;;;19.41;33.50;99692.50;5077768;27;45430;-71
2022/04/22 10:53:25;;;;;;;;;8.00;7.00;;;;;18.94;33.83;99624.97;5073995;27;45475;-75
2022/04/22 10:55:52;;;;;;;;;7.67;7.00;;;;;18.88;33.91;99597.88;5071276;28;45596;-73
2022/04/22 10:58:21;;;;;;;;;11.00;9.00;;;;;19.34;33.98;99654.81;5072693;27;45484;-75
2022/04/22 11:00:48;;;;;;;;;11.00;10.67;;;;;19.43;33.77;99675.56;5069718;28;45688;-75
2022/04/22 11:03:19;;;;;;;;;8.67;7.33;;;;;19.56;33.99;99685.56;5079714;27;45808;-75
2022/04/22 11:05:46;;;;;;;;;7.00;5.00;;;;;19.50;33.74;99665.47;5070015;28;45522;-75
2022/04/22 11:08:26;;;;;;;;;6.00;5.00;;;;;19.75;34.03;99682.84;5062706;28;45430;-74
2022/04/22 11:10:52;;;;;;;;;7.33;7.33;;;;;19.95;33.60;99681.75;5059592;28;45391;-74
2022/04/22 11:13:29;;;;;;;;;7.67;7.67;;;;;19.89;33.93;99661.69;5061414;28;45503;-76
2022/04/22 11:16:19;;;;;;;;;7.67;6.00;;;;;20.20;33.71;99686.63;5060150;28;46460;-75
2022/04/22 11:19:08;;;;;;;;;7.00;7.00;;;;;20.27;32.93;99683.53;5062560;28;45660;-75
2022/04/22 11:21:33;;;;;;;;;6.33;6.00;;;;;20.32;33.27;99686.81;5057889;27;45503;-78
2022/04/22 11:23:59;;;;;;;;;6.00;6.00;;;;;20.36;33.28;99678.66;5058071;28;45460;-77
2022/04/22 11:26:25;;;;;;;;;8.67;8.00;;;;;20.27;32.76;99667.59;5059248;28;45421;-77
2022/04/22 11:28:50;;;;;;;;;9.00;6.67;;;;;20.36;32.37;99678.66;5058616;28;46033;-75
2022/04/22 11:31:18;;;;;;;;;4.67;4.67;;;;;20.43;32.81;99682.69;5064639;27;45485;-78
2022/04/22 11:33:45;;;;;;;;;7.00;7.00;;;;;20.46;32.42;99677.22;5058438;28;45763;-77
2022/04/22 11:36:11;;;;;;;;;8.00;6.67;;;;;20.53;32.54;99676.78;5057725;28;45313;-75
2022/04/22 11:38:51;;;;;;;;;7.67;6.00;;;;;20.61;32.27;99679.03;5055633;28;45531;-80
2022/04/22 11:41:17;;;;;;;;;8.00;8.00;;;;;20.67;32.07;99672.53;5059652;28;45370;-78
2022/04/22 11:43:44;;;;;;;;;9.67;8.33;;;;;20.39;32.07;99638.59;5070322;27;45582;-74
2022/04/22 11:46:14;;;;;;;;;9.33;8.33;;;;;20.38;31.89;99620.91;5079840;27;45488;-73
2022/04/22 11:48:55;;;;;;;;;5.00;5.00;;;;;20.64;32.16;99667.34;5062032;27;46118;-74
2022/04/22 11:51:20;;;;;;;;;11.00;9.00;;;;;20.63;32.70;99671.81;5078560;27;45552;-72
2022/04/22 11:53:52;;;;;;;;;7.67;7.67;;;;;20.56;33.29;99653.66;5061106;27;45529;-73
2022/04/22 11:56:24;;;;;;;;;7.00;7.00;;;;;20.78;32.77;99671.91;5077852;27;45548;-73
2022/04/22 11:58:57;;;;;;;;;8.00;5.33;;;;;20.96;33.37;99661.06;5062690;28;46664;-74
2022/04/22 12:07:02;;;;;;;;;5.00;5.00;;;;;20.75;31.85;99514.13;5044052;28;45441;-79
2022/04/22 12:09:28;;;;;;;;;11.00;8.67;;;;;21.38;31.21;99600.03;5058051;28;46337;-74
2022/04/22 12:11:57;;;;;;;;;8.33;5.00;;;;;21.49;31.26;99626.03;5061819;28;45560;-74
2022/04/22 12:14:28;;;;;;;;;9.00;7.67;;;;;20.94;30.74;99510.38;5079216;27;45482;-73
2022/04/22 12:16:58;;;;;;;;;7.00;7.00;;;;;21.42;30.91;99574.06;5067264;27;45479;-74
2022/04/22 12:19:26;;;;;;;;;5.33;5.00;;;;;21.83;30.54;99637.28;5059621;28;46786;-73
2022/04/22 12:21:53;;;;;;;;;8.00;6.33;;;;;21.92;30.32;99647.38;5060207;28;45541;-73
2022/04/22 12:24:20;;;;;;;;;8.00;7.33;;;;;21.76;30.38;99631.50;5078487;28;45523;-74
2022/04/22 12:26:47;;;;;;;;;5.33;5.33;;;;;21.87;30.86;99638.81;5060172;28;45354;-73
2022/04/22 12:29:15;;;;;;;;;5.00;5.00;;;;;21.92;30.52;99618.88;5064259;27;45450;-72
2022/04/22 12:31:43;;;;;;;;;7.33;6.00;;;;;21.99;30.52;99606.88;5061087;27;45556;-75
2022/04/22 12:34:11;;;;;;;;;5.67;5.67;;;;;21.71;30.37;99553.59;5058624;28;45804;-75
2022/04/22 12:36:39;;;;;;;;;6.00;5.33;;;;;22.21;30.18;99632.25;5059589;28;45527;-76